sensor_id;sensor_type;location;lat;lon;timestamp;temperature;humidity
12421;DHT22;6275;43.688;1.408;2023-11-21T00:02:26;8.80;99.90
12421;DHT22;6275;43.688;1.408;2023-11-21T00:04:54;8.80;99.90
12421;DHT22;6275;43.688;1.408;2023-11-21T00:07:21;8.80;99.90
12421;DHT22;6275;43.688;1.408;2023-11-21T00:09:48;8.80;99.90
12421;DHT22;6275;43.688;1.408;2023-11-21T00:12:15;8.70;99.90
12421;DHT22;6275;43.688;1.408;2023-11-21T00:14:42;8.70;99.90
12421;DHT22;6275;43.688;1.408;2023-11-21T00:17:09;8.80;99.90
12421;DHT22;6275;43.688;1.408;2023-11-21T00:19:36;8.70;99.90
12421;DHT22;6275;43.688;1.408;2023-11-21T00:22:03;8.70;99.90
12421;DHT22;6275;43.688;1.408;2023-11-21T00:24:30;8.70;99.90
12421;DHT22;6275;43.688;1.408;2023-11-21T00:26:56;8.70;99.90
12421;DHT22;6275;43.688;1.408;2023-11-21T00:29:23;8.70;99.90
12421;DHT22;6275;43.688;1.408;2023-11-21T00:31:50;8.80;99.90
12421;DHT22;6275;43.688;1.408;2023-11-21T00:34:17;8.70;99.90
12421;DHT22;6275;43.688;1.408;2023-11-21T00:36:44;8.80;99.90
12421;DHT22;6275;43.688;1.408;2023-11-21T00:39:11;8.80;99.90
12421;DHT22;6275;43.688;1.408;2023-11-21T00:41:38;8.70;99.90
12421;DHT22;6275;43.688;1.408;2023-11-21T00:44:05;8.80;99.90
12421;DHT22;6275;43.688;1.408;2023-11-21T00:46:33;8.70;99.90
12421;DHT22;6275;43.688;1.408;2023-11-21T00:49:00;8.70;99.90
12421;DHT22;6275;43.688;1.408;2023-11-21T00:51:27;8.80;99.90
12421;DHT22;6275;43.688;1.408;2023-11-21T00:53:54;8.60;99.90
12421;DHT22;6275;43.688;1.408;2023-11-21T00:56:21;8.60;99.90
12421;DHT22;6275;43.688;1.408;2023-11-21T00:58:49;8.60;99.90
12421;DHT22;6275;43.688;1.408;2023-11-21T01:01:19;8.70;99.90
12421;DHT22;6275;43.688;1.408;2023-11-21T01:03:46;8.60;99.90
12421;DHT22;6275;43.688;1.408;2023-11-21T01:06:14;8.70;99.90
12421;DHT22;6275;43.688;1.408;2023-11-21T01:08:43;8.80;99.90
12421;DHT22;6275;43.688;1.408;2023-11-21T01:11:11;8.60;99.90
12421;DHT22;6275;43.688;1.408;2023-11-21T01:13:42;8.70;99.90
12421;DHT22;6275;43.688;1.408;2023-11-21T01:16:09;8.80;99.90
12421;DHT22;6275;43.688;1.408;2023-11-21T01:18:36;8.60;99.90
12421;DHT22;6275;43.688;1.408;2023-11-21T01:21:03;8.70;99.90
12421;DHT22;6275;43.688;1.408;2023-11-21T01:23:30;8.60;99.90
12421;DHT22;6275;43.688;1.408;2023-11-21T01:25:57;8.70;99.90
12421;DHT22;6275;43.688;1.408;2023-11-21T01:28:24;8.60;99.90
12421;DHT22;6275;43.688;1.408;2023-11-21T01:30:51;8.70;99.90
12421;DHT22;6275;43.688;1.408;2023-11-21T01:33:18;8.70;99.90
12421;DHT22;6275;43.688;1.408;2023-11-21T01:35:45;8.60;99.90
12421;DHT22;6275;43.688;1.408;2023-11-21T01:38:13;8.70;99.90
12421;DHT22;6275;43.688;1.408;2023-11-21T01:40:40;8.70;99.90
12421;DHT22;6275;43.688;1.408;2023-11-21T01:43:07;8.60;99.90
12421;DHT22;6275;43.688;1.408;2023-11-21T01:45:35;8.50;99.90
12421;DHT22;6275;43.688;1.408;2023-11-21T01:48:02;8.60;99.90
12421;DHT22;6275;43.688;1.408;2023-11-21T01:50:30;8.60;99.90
12421;DHT22;6275;43.688;1.408;2023-11-21T01:52:58;8.60;99.90
12421;DHT22;6275;43.688;1.408;2023-11-21T01:55:25;8.60;99.90
12421;DHT22;6275;43.688;1.408;2023-11-21T01:57:56;8.60;99.90
12421;DHT22;6275;43.688;1.408;2023-11-21T02:00:24;8.60;99.90
12421;DHT22;6275;43.688;1.408;2023-11-21T02:02:52;8.60;99.90
12421;DHT22;6275;43.688;1.408;2023-11-21T02:05:19;8.60;99.90
12421;DHT22;6275;43.688;1.408;2023-11-21T02:07:48;8.60;99.90
12421;DHT22;6275;43.688;1.408;2023-11-21T02:10:15;8.60;99.90
12421;DHT22;6275;43.688;1.408;2023-11-21T02:12:43;8.60;99.90
12421;DHT22;6275;43.688;1.408;2023-11-21T02:15:13;8.50;99.90
12421;DHT22;6275;43.688;1.408;2023-11-21T02:17:47;8.60;99.90
12421;DHT22;6275;43.688;1.408;2023-11-21T02:20:22;8.60;99.90
12421;DHT22;6275;43.688;1.408;2023-11-21T02:22:56;8.60;99.90
12421;DHT22;6275;43.688;1.408;2023-11-21T02:25:29;8.50;99.90
12421;DHT22;6275;43.688;1.408;2023-11-21T02:27:58;8.60;99.90
12421;DHT22;6275;43.688;1.408;2023-11-21T02:30:25;8.60;99.90
12421;DHT22;6275;43.688;1.408;2023-11-21T02:32:54;8.60;99.90
12421;DHT22;6275;43.688;1.408;2023-11-21T02:35:24;8.50;99.90
12421;DHT22;6275;43.688;1.408;2023-11-21T02:37:53;8.60;99.90
12421;DHT22;6275;43.688;1.408;2023-11-21T02:40:20;8.60;99.90
12421;DHT22;6275;43.688;1.408;2023-11-21T02:42:48;8.60;99.90
12421;DHT22;6275;43.688;1.408;2023-11-21T02:45:19;8.50;99.90
12421;DHT22;6275;43.688;1.408;2023-11-21T02:47:47;8.60;99.90
12421;DHT22;6275;43.688;1.408;2023-11-21T02:50:16;8.60;99.90
12421;DHT22;6275;43.688;1.408;2023-11-21T02:52:46;8.60;99.90
12421;DHT22;6275;43.688;1.408;2023-11-21T02:55:13;8.50;99.90
12421;DHT22;6275;43.688;1.408;2023-11-21T02:57:40;8.50;99.90
12421;DHT22;6275;43.688;1.408;2023-11-21T03:00:07;8.50;99.90
12421;DHT22;6275;43.688;1.408;2023-11-21T03:02:35;8.60;99.90
12421;DHT22;6275;43.688;1.408;2023-11-21T03:05:07;8.60;99.90
12421;DHT22;6275;43.688;1.408;2023-11-21T03:07:39;8.60;99.90
12421;DHT22;6275;43.688;1.408;2023-11-21T03:10:08;8.50;99.90
12421;DHT22;6275;43.688;1.408;2023-11-21T03:12:39;8.50;99.90
12421;DHT22;6275;43.688;1.408;2023-11-21T03:15:07;8.60;99.90
12421;DHT22;6275;43.688;1.408;2023-11-21T03:17:34;8.60;99.90
12421;DHT22;6275;43.688;1.408;2023-11-21T03:20:01;8.60;99.90
12421;DHT22;6275;43.688;1.408;2023-11-21T03:22:30;8.50;99.90
12421;DHT22;6275;43.688;1.408;2023-11-21T03:24:58;8.50;99.90
12421;DHT22;6275;43.688;1.408;2023-11-21T03:27:25;8.60;99.90
12421;DHT22;6275;43.688;1.408;2023-11-21T03:29:52;8.60;99.90
12421;DHT22;6275;43.688;1.408;2023-11-21T03:32:21;8.60;99.90
12421;DHT22;6275;43.688;1.408;2023-11-21T03:34:58;8.60;99.90
12421;DHT22;6275;43.688;1.408;2023-11-21T03:37:26;8.60;99.90
12421;DHT22;6275;43.688;1.408;2023-11-21T03:39:56;8.50;99.90
12421;DHT22;6275;43.688;1.408;2023-11-21T03:42:24;8.50;99.90
12421;DHT22;6275;43.688;1.408;2023-11-21T03:44:53;8.60;99.90
12421;DHT22;6275;43.688;1.408;2023-11-21T03:47:20;8.60;99.90
12421;DHT22;6275;43.688;1.408;2023-11-21T03:49:47;8.50;99.90
12421;DHT22;6275;43.688;1.408;2023-11-21T03:52:14;8.50;99.90
12421;DHT22;6275;43.688;1.408;2023-11-21T03:54:42;8.50;99.90
12421;DHT22;6275;43.688;1.408;2023-11-21T03:57:10;8.50;99.90
12421;DHT22;6275;43.688;1.408;2023-11-21T03:59:40;8.50;99.90
12421;DHT22;6275;43.688;1.408;2023-11-21T04:02:08;8.50;99.90
12421;DHT22;6275;43.688;1.408;2023-11-21T04:04:35;8.60;99.90
12421;DHT22;6275;43.688;1.408;2023-11-21T04:07:03;8.50;99.90
12421;DHT22;6275;43.688;1.408;2023-11-21T04:09:31;8.50;99.90
12421;DHT22;6275;43.688;1.408;2023-11-21T04:11:58;8.50;99.90
12421;DHT22;6275;43.688;1.408;2023-11-21T04:14:25;8.50;99.90
12421;DHT22;6275;43.688;1.408;2023-11-21T04:16:52;8.50;99.90
12421;DHT22;6275;43.688;1.408;2023-11-21T04:19:21;8.50;99.90
12421;DHT22;6275;43.688;1.408;2023-11-21T04:21:48;8.60;99.90
12421;DHT22;6275;43.688;1.408;2023-11-21T04:24:15;8.50;99.90
12421;DHT22;6275;43.688;1.408;2023-11-21T04:26:43;8.60;99.90
12421;DHT22;6275;43.688;1.408;2023-11-21T04:29:11;8.50;99.90
12421;DHT22;6275;43.688;1.408;2023-11-21T04:31:38;8.50;99.90
12421;DHT22;6275;43.688;1.408;2023-11-21T04:34:05;8.50;99.90
12421;DHT22;6275;43.688;1.408;2023-11-21T04:36:32;8.50;99.90
12421;DHT22;6275;43.688;1.408;2023-11-21T04:38:59;8.50;99.90
12421;DHT22;6275;43.688;1.408;2023-11-21T04:41:25;8.50;99.90
12421;DHT22;6275;43.688;1.408;2023-11-21T04:43:52;8.50;99.90
12421;DHT22;6275;43.688;1.408;2023-11-21T04:46:19;8.50;99.90
12421;DHT22;6275;43.688;1.408;2023-11-21T04:48:46;8.50;99.90
12421;DHT22;6275;43.688;1.408;2023-11-21T04:51:13;8.50;99.90
12421;DHT22;6275;43.688;1.408;2023-11-21T04:53:41;8.50;99.90
12421;DHT22;6275;43.688;1.408;2023-11-21T04:56:08;8.50;99.90
12421;DHT22;6275;43.688;1.408;2023-11-21T04:58:34;8.50;99.90
12421;DHT22;6275;43.688;1.408;2023-11-21T05:01:02;8.60;99.90
12421;DHT22;6275;43.688;1.408;2023-11-21T05:03:34;8.60;99.90
12421;DHT22;6275;43.688;1.408;2023-11-21T05:06:01;8.60;99.90
12421;DHT22;6275;43.688;1.408;2023-11-21T05:08:28;8.60;99.90
12421;DHT22;6275;43.688;1.408;2023-11-21T05:10:55;8.60;99.90
12421;DHT22;6275;43.688;1.408;2023-11-21T05:13:22;8.50;99.90
12421;DHT22;6275;43.688;1.408;2023-11-21T05:15:55;8.60;99.90
12421;DHT22;6275;43.688;1.408;2023-11-21T05:18:25;8.60;99.90
12421;DHT22;6275;43.688;1.408;2023-11-21T05:20:56;8.70;99.90
12421;DHT22;6275;43.688;1.408;2023-11-21T05:23:24;8.60;99.90
12421;DHT22;6275;43.688;1.408;2023-11-21T05:25:51;8.60;99.90
12421;DHT22;6275;43.688;1.408;2023-11-21T05:28:18;8.60;99.90
12421;DHT22;6275;43.688;1.408;2023-11-21T05:30:45;8.50;99.90
12421;DHT22;6275;43.688;1.408;2023-11-21T05:33:12;8.50;99.90
12421;DHT22;6275;43.688;1.408;2023-11-21T05:35:39;8.50;99.90
12421;DHT22;6275;43.688;1.408;2023-11-21T05:38:06;8.60;99.90
12421;DHT22;6275;43.688;1.408;2023-11-21T05:40:33;8.60;99.90
12421;DHT22;6275;43.688;1.408;2023-11-21T05:43:00;8.50;99.90
12421;DHT22;6275;43.688;1.408;2023-11-21T05:45:27;8.50;99.90
12421;DHT22;6275;43.688;1.408;2023-11-21T05:47:55;8.50;99.90
12421;DHT22;6275;43.688;1.408;2023-11-21T05:50:22;8.60;99.90
12421;DHT22;6275;43.688;1.408;2023-11-21T05:52:50;8.60;99.90
12421;DHT22;6275;43.688;1.408;2023-11-21T05:55:17;8.60;99.90
12421;DHT22;6275;43.688;1.408;2023-11-21T05:57:44;8.60;99.90
12421;DHT22;6275;43.688;1.408;2023-11-21T06:00:13;8.50;99.90
12421;DHT22;6275;43.688;1.408;2023-11-21T06:02:50;8.50;99.90
12421;DHT22;6275;43.688;1.408;2023-11-21T06:05:22;8.50;99.90
12421;DHT22;6275;43.688;1.408;2023-11-21T06:07:54;8.60;99.90
12421;DHT22;6275;43.688;1.408;2023-11-21T06:10:23;8.50;99.90
12421;DHT22;6275;43.688;1.408;2023-11-21T06:12:52;8.50;99.90
12421;DHT22;6275;43.688;1.408;2023-11-21T06:15:19;8.50;99.90
12421;DHT22;6275;43.688;1.408;2023-11-21T06:17:47;8.50;99.90
12421;DHT22;6275;43.688;1.408;2023-11-21T06:20:20;8.60;99.90
12421;DHT22;6275;43.688;1.408;2023-11-21T06:22:49;8.60;99.90
12421;DHT22;6275;43.688;1.408;2023-11-21T06:25:17;8.60;99.90
12421;DHT22;6275;43.688;1.408;2023-11-21T06:27:46;8.60;99.90
12421;DHT22;6275;43.688;1.408;2023-11-21T06:30:13;8.60;99.90
12421;DHT22;6275;43.688;1.408;2023-11-21T06:32:42;8.60;99.90
12421;DHT22;6275;43.688;1.408;2023-11-21T06:35:14;8.50;99.90
12421;DHT22;6275;43.688;1.408;2023-11-21T06:37:43;8.50;99.90
12421;DHT22;6275;43.688;1.408;2023-11-21T06:40:17;8.60;99.90
12421;DHT22;6275;43.688;1.408;2023-11-21T06:42:48;8.60;99.90
12421;DHT22;6275;43.688;1.408;2023-11-21T06:45:16;8.60;99.90
12421;DHT22;6275;43.688;1.408;2023-11-21T06:47:43;8.70;99.90
12421;DHT22;6275;43.688;1.408;2023-11-21T06:50:11;8.70;99.90
12421;DHT22;6275;43.688;1.408;2023-11-21T06:52:38;8.70;99.90
12421;DHT22;6275;43.688;1.408;2023-11-21T06:55:06;8.60;99.90
12421;DHT22;6275;43.688;1.408;2023-11-21T06:57:35;8.70;99.90
12421;DHT22;6275;43.688;1.408;2023-11-21T07:00:03;8.70;99.90
12421;DHT22;6275;43.688;1.408;2023-11-21T07:02:30;8.70;99.90
12421;DHT22;6275;43.688;1.408;2023-11-21T07:04:57;8.70;99.90
12421;DHT22;6275;43.688;1.408;2023-11-21T07:07:24;8.70;99.90
12421;DHT22;6275;43.688;1.408;2023-11-21T07:09:51;8.70;99.90
12421;DHT22;6275;43.688;1.408;2023-11-21T07:12:19;8.70;99.90
12421;DHT22;6275;43.688;1.408;2023-11-21T07:14:45;8.70;99.90
12421;DHT22;6275;43.688;1.408;2023-11-21T07:17:13;8.70;99.90
12421;DHT22;6275;43.688;1.408;2023-11-21T07:19:40;8.70;99.90
12421;DHT22;6275;43.688;1.408;2023-11-21T07:22:08;8.70;99.90
12421;DHT22;6275;43.688;1.408;2023-11-21T07:24:36;8.70;99.90
12421;DHT22;6275;43.688;1.408;2023-11-21T07:27:03;8.70;99.90
12421;DHT22;6275;43.688;1.408;2023-11-21T07:29:31;8.70;99.90
12421;DHT22;6275;43.688;1.408;2023-11-21T07:31:58;8.80;99.90
12421;DHT22;6275;43.688;1.408;2023-11-21T07:34:25;8.80;99.90
12421;DHT22;6275;43.688;1.408;2023-11-21T07:36:52;8.80;99.90
12421;DHT22;6275;43.688;1.408;2023-11-21T07:39:19;8.80;99.90
12421;DHT22;6275;43.688;1.408;2023-11-21T07:41:46;8.80;99.90
12421;DHT22;6275;43.688;1.408;2023-11-21T07:44:18;8.80;99.90
12421;DHT22;6275;43.688;1.408;2023-11-21T07:46:48;8.80;99.90
12421;DHT22;6275;43.688;1.408;2023-11-21T07:49:17;8.80;99.90
12421;DHT22;6275;43.688;1.408;2023-11-21T07:51:47;8.80;99.90
12421;DHT22;6275;43.688;1.408;2023-11-21T07:54:14;8.80;99.90
12421;DHT22;6275;43.688;1.408;2023-11-21T07:56:42;8.80;99.90
12421;DHT22;6275;43.688;1.408;2023-11-21T07:59:09;8.90;99.90
12421;DHT22;6275;43.688;1.408;2023-11-21T08:01:36;8.90;99.90
12421;DHT22;6275;43.688;1.408;2023-11-21T08:04:03;9.00;99.90
12421;DHT22;6275;43.688;1.408;2023-11-21T08:06:31;9.00;99.90
12421;DHT22;6275;43.688;1.408;2023-11-21T08:08:59;9.00;99.90
12421;DHT22;6275;43.688;1.408;2023-11-21T08:11:26;9.10;99.90
12421;DHT22;6275;43.688;1.408;2023-11-21T08:13:56;9.10;99.90
12421;DHT22;6275;43.688;1.408;2023-11-21T08:16:23;9.10;99.90
12421;DHT22;6275;43.688;1.408;2023-11-21T08:18:51;9.20;99.90
12421;DHT22;6275;43.688;1.408;2023-11-21T08:21:18;9.20;99.90
12421;DHT22;6275;43.688;1.408;2023-11-21T08:23:46;9.10;99.90
12421;DHT22;6275;43.688;1.408;2023-11-21T08:26:16;9.20;99.90
12421;DHT22;6275;43.688;1.408;2023-11-21T08:28:43;9.10;99.90
12421;DHT22;6275;43.688;1.408;2023-11-21T08:31:10;9.10;99.90
12421;DHT22;6275;43.688;1.408;2023-11-21T08:33:39;9.10;99.90
12421;DHT22;6275;43.688;1.408;2023-11-21T08:36:08;9.10;99.90
12421;DHT22;6275;43.688;1.408;2023-11-21T08:38:36;9.10;99.90
12421;DHT22;6275;43.688;1.408;2023-11-21T08:41:06;9.20;99.90
12421;DHT22;6275;43.688;1.408;2023-11-21T08:43:37;9.20;99.90
12421;DHT22;6275;43.688;1.408;2023-11-21T08:46:07;9.30;99.90
12421;DHT22;6275;43.688;1.408;2023-11-21T08:48:37;9.30;99.90
12421;DHT22;6275;43.688;1.408;2023-11-21T08:51:05;9.30;99.90
12421;DHT22;6275;43.688;1.408;2023-11-21T08:53:32;9.40;99.90
12421;DHT22;6275;43.688;1.408;2023-11-21T08:55:59;9.20;99.90
12421;DHT22;6275;43.688;1.408;2023-11-21T08:58:27;9.30;99.90
12421;DHT22;6275;43.688;1.408;2023-11-21T09:00:54;9.40;99.90
12421;DHT22;6275;43.688;1.408;2023-11-21T09:03:21;9.80;99.90
12421;DHT22;6275;43.688;1.408;2023-11-21T09:05:48;9.80;99.90
12421;DHT22;6275;43.688;1.408;2023-11-21T09:08:15;9.90;99.90
12421;DHT22;6275;43.688;1.408;2023-11-21T09:10:42;9.60;99.90
12421;DHT22;6275;43.688;1.408;2023-11-21T09:13:10;9.60;99.90
12421;DHT22;6275;43.688;1.408;2023-11-21T09:15:37;9.50;99.90
12421;DHT22;6275;43.688;1.408;2023-11-21T09:18:04;9.50;99.90
12421;DHT22;6275;43.688;1.408;2023-11-21T09:20:32;9.40;99.90
12421;DHT22;6275;43.688;1.408;2023-11-21T09:22:58;9.60;99.90
12421;DHT22;6275;43.688;1.408;2023-11-21T09:25:25;9.40;99.90
12421;DHT22;6275;43.688;1.408;2023-11-21T09:27:53;9.40;99.90
12421;DHT22;6275;43.688;1.408;2023-11-21T09:30:19;9.40;99.90
12421;DHT22;6275;43.688;1.408;2023-11-21T09:32:46;9.40;99.90
12421;DHT22;6275;43.688;1.408;2023-11-21T09:35:14;9.50;99.90
12421;DHT22;6275;43.688;1.408;2023-11-21T09:37:46;9.50;99.90
12421;DHT22;6275;43.688;1.408;2023-11-21T09:40:21;9.60;99.90
12421;DHT22;6275;43.688;1.408;2023-11-21T09:42:55;9.70;99.90
12421;DHT22;6275;43.688;1.408;2023-11-21T09:45:28;9.90;99.90
12421;DHT22;6275;43.688;1.408;2023-11-21T09:47:56;10.00;99.90
12421;DHT22;6275;43.688;1.408;2023-11-21T09:50:24;9.90;99.90
12421;DHT22;6275;43.688;1.408;2023-11-21T09:58:19;11.20;99.90
12421;DHT22;6275;43.688;1.408;2023-11-21T10:03:16;10.20;99.90
12421;DHT22;6275;43.688;1.408;2023-11-21T10:05:45;10.20;99.90
12421;DHT22;6275;43.688;1.408;2023-11-21T10:08:15;10.30;99.90
12421;DHT22;6275;43.688;1.408;2023-11-21T10:10:46;10.00;99.90
12421;DHT22;6275;43.688;1.408;2023-11-21T10:13:15;10.00;99.90
12421;DHT22;6275;43.688;1.408;2023-11-21T10:15:51;10.30;99.90
12421;DHT22;6275;43.688;1.408;2023-11-21T10:18:18;10.10;99.90
12421;DHT22;6275;43.688;1.408;2023-11-21T10:20:46;10.10;99.90
12421;DHT22;6275;43.688;1.408;2023-11-21T13:53:05;12.00;99.90
12421;DHT22;6275;43.688;1.408;2023-11-21T13:55:45;12.10;99.90
12421;DHT22;6275;43.688;1.408;2023-11-21T13:58:13;12.00;99.90
12421;DHT22;6275;43.688;1.408;2023-11-21T14:00:46;11.90;99.90
12421;DHT22;6275;43.688;1.408;2023-11-21T14:03:13;11.80;99.90
12421;DHT22;6275;43.688;1.408;2023-11-21T14:05:49;11.70;99.90
12421;DHT22;6275;43.688;1.408;2023-11-21T14:08:19;11.60;99.90
12421;DHT22;6275;43.688;1.408;2023-11-21T14:10:48;11.50;99.90
12421;DHT22;6275;43.688;1.408;2023-11-21T14:13:24;11.50;99.90
12421;DHT22;6275;43.688;1.408;2023-11-21T14:15:51;11.40;99.90
12421;DHT22;6275;43.688;1.408;2023-11-21T14:18:24;11.40;99.90
12421;DHT22;6275;43.688;1.408;2023-11-21T14:20:57;11.30;99.90
12421;DHT22;6275;43.688;1.408;2023-11-21T14:23:24;11.30;99.90
12421;DHT22;6275;43.688;1.408;2023-11-21T14:25:51;11.20;99.90
12421;DHT22;6275;43.688;1.408;2023-11-21T14:28:18;11.20;99.90
12421;DHT22;6275;43.688;1.408;2023-11-21T14:30:46;11.30;99.90
12421;DHT22;6275;43.688;1.408;2023-11-21T14:33:13;11.20;99.90
12421;DHT22;6275;43.688;1.408;2023-11-21T14:35:43;11.20;99.90
12421;DHT22;6275;43.688;1.408;2023-11-21T14:38:11;11.30;99.90
12421;DHT22;6275;43.688;1.408;2023-11-21T14:40:40;11.30;99.90
12421;DHT22;6275;43.688;1.408;2023-11-21T14:43:07;11.20;99.90
12421;DHT22;6275;43.688;1.408;2023-11-21T14:45:34;11.10;99.90
12421;DHT22;6275;43.688;1.408;2023-11-21T14:48:01;11.00;99.90
12421;DHT22;6275;43.688;1.408;2023-11-21T14:50:32;11.00;99.90
12421;DHT22;6275;43.688;1.408;2023-11-21T14:53:12;11.00;99.90
12421;DHT22;6275;43.688;1.408;2023-11-21T14:55:40;11.00;99.90
12421;DHT22;6275;43.688;1.408;2023-11-21T14:58:23;10.90;99.90
12421;DHT22;6275;43.688;1.408;2023-11-21T15:00:57;11.00;99.90
12421;DHT22;6275;43.688;1.408;2023-11-21T15:03:28;11.00;99.90
12421;DHT22;6275;43.688;1.408;2023-11-21T15:06:05;11.10;99.90
12421;DHT22;6275;43.688;1.408;2023-11-21T15:08:54;11.00;99.90
12421;DHT22;6275;43.688;1.408;2023-11-21T15:11:41;11.00;99.90
12421;DHT22;6275;43.688;1.408;2023-11-21T15:14:09;10.90;99.90
12421;DHT22;6275;43.688;1.408;2023-11-21T15:16:39;10.90;99.90
12421;DHT22;6275;43.688;1.408;2023-11-21T15:19:08;10.80;99.90
12421;DHT22;6275;43.688;1.408;2023-11-21T15:21:36;10.60;99.90
12421;DHT22;6275;43.688;1.408;2023-11-21T15:24:03;10.50;99.90
12421;DHT22;6275;43.688;1.408;2023-11-21T15:26:30;10.50;99.90
12421;DHT22;6275;43.688;1.408;2023-11-21T15:28:57;10.40;99.90
12421;DHT22;6275;43.688;1.408;2023-11-21T15:31:24;10.50;99.90
12421;DHT22;6275;43.688;1.408;2023-11-21T15:33:52;10.50;99.90
12421;DHT22;6275;43.688;1.408;2023-11-21T15:36:20;10.60;99.90
12421;DHT22;6275;43.688;1.408;2023-11-21T15:38:47;10.60;99.90
12421;DHT22;6275;43.688;1.408;2023-11-21T15:41:14;10.50;99.90
12421;DHT22;6275;43.688;1.408;2023-11-21T15:43:41;10.50;99.90
12421;DHT22;6275;43.688;1.408;2023-11-21T15:46:08;10.40;99.90
12421;DHT22;6275;43.688;1.408;2023-11-21T15:48:36;10.40;99.90
12421;DHT22;6275;43.688;1.408;2023-11-21T15:51:05;10.30;99.90
12421;DHT22;6275;43.688;1.408;2023-11-21T15:53:35;10.20;99.90
12421;DHT22;6275;43.688;1.408;2023-11-21T15:56:04;10.20;99.90
12421;DHT22;6275;43.688;1.408;2023-11-21T15:58:31;10.10;99.90
12421;DHT22;6275;43.688;1.408;2023-11-21T16:00:57;10.20;99.90
12421;DHT22;6275;43.688;1.408;2023-11-21T16:03:24;10.20;99.90
12421;DHT22;6275;43.688;1.408;2023-11-21T16:05:51;10.20;99.90
12421;DHT22;6275;43.688;1.408;2023-11-21T16:08:18;10.10;99.90
12421;DHT22;6275;43.688;1.408;2023-11-21T16:10:45;10.10;99.90
12421;DHT22;6275;43.688;1.408;2023-11-21T16:13:12;10.00;99.90
12421;DHT22;6275;43.688;1.408;2023-11-21T16:15:40;10.00;99.90
12421;DHT22;6275;43.688;1.408;2023-11-21T16:18:09;10.00;99.90
12421;DHT22;6275;43.688;1.408;2023-11-21T16:20:36;10.00;99.90
12421;DHT22;6275;43.688;1.408;2023-11-21T16:23:03;9.90;99.90
12421;DHT22;6275;43.688;1.408;2023-11-21T16:25:30;9.90;99.90
12421;DHT22;6275;43.688;1.408;2023-11-21T16:27:56;9.90;99.90
12421;DHT22;6275;43.688;1.408;2023-11-21T16:30:26;9.90;99.90
12421;DHT22;6275;43.688;1.408;2023-11-21T16:32:53;9.90;99.90
12421;DHT22;6275;43.688;1.408;2023-11-21T16:35:21;9.90;99.90
12421;DHT22;6275;43.688;1.408;2023-11-21T16:37:48;10.00;99.90
12421;DHT22;6275;43.688;1.408;2023-11-21T16:40:15;10.00;99.90
12421;DHT22;6275;43.688;1.408;2023-11-21T16:42:42;9.90;99.90
12421;DHT22;6275;43.688;1.408;2023-11-21T16:45:09;9.90;99.90
12421;DHT22;6275;43.688;1.408;2023-11-21T16:47:37;9.90;99.90
12421;DHT22;6275;43.688;1.408;2023-11-21T16:50:04;9.90;99.90
12421;DHT22;6275;43.688;1.408;2023-11-21T16:52:32;9.90;99.90
12421;DHT22;6275;43.688;1.408;2023-11-21T16:54:58;9.90;99.90
12421;DHT22;6275;43.688;1.408;2023-11-21T16:57:25;9.80;99.90
12421;DHT22;6275;43.688;1.408;2023-11-21T16:59:52;9.80;99.90
12421;DHT22;6275;43.688;1.408;2023-11-21T17:02:19;9.70;99.90
12421;DHT22;6275;43.688;1.408;2023-11-21T17:04:48;9.70;99.90
12421;DHT22;6275;43.688;1.408;2023-11-21T17:07:17;9.60;99.90
12421;DHT22;6275;43.688;1.408;2023-11-21T17:09:49;9.50;99.90
12421;DHT22;6275;43.688;1.408;2023-11-21T17:12:17;9.40;99.90
12421;DHT22;6275;43.688;1.408;2023-11-21T17:14:45;9.50;99.90
12421;DHT22;6275;43.688;1.408;2023-11-21T17:17:15;9.50;99.90
12421;DHT22;6275;43.688;1.408;2023-11-21T17:19:42;9.50;99.90
12421;DHT22;6275;43.688;1.408;2023-11-21T17:22:11;9.50;99.90
12421;DHT22;6275;43.688;1.408;2023-11-21T17:24:38;9.40;99.90
12421;DHT22;6275;43.688;1.408;2023-11-21T17:27:05;9.40;99.90
12421;DHT22;6275;43.688;1.408;2023-11-21T17:29:32;9.50;99.90
12421;DHT22;6275;43.688;1.408;2023-11-21T17:31:59;9.50;99.90
12421;DHT22;6275;43.688;1.408;2023-11-21T17:34:26;9.50;99.90
12421;DHT22;6275;43.688;1.408;2023-11-21T17:36:53;9.50;99.90
12421;DHT22;6275;43.688;1.408;2023-11-21T17:39:22;9.40;99.90
12421;DHT22;6275;43.688;1.408;2023-11-21T17:41:50;9.50;99.90
12421;DHT22;6275;43.688;1.408;2023-11-21T17:44:17;9.50;99.90
12421;DHT22;6275;43.688;1.408;2023-11-21T17:46:44;9.40;99.90
12421;DHT22;6275;43.688;1.408;2023-11-21T17:49:11;9.40;99.90
12421;DHT22;6275;43.688;1.408;2023-11-21T17:51:39;9.30;99.90
12421;DHT22;6275;43.688;1.408;2023-11-21T17:54:07;9.30;99.90
12421;DHT22;6275;43.688;1.408;2023-11-21T17:56:35;9.30;99.90
12421;DHT22;6275;43.688;1.408;2023-11-21T17:59:02;9.30;99.90
12421;DHT22;6275;43.688;1.408;2023-11-21T18:01:40;9.30;99.90
12421;DHT22;6275;43.688;1.408;2023-11-21T18:04:09;9.30;99.90
12421;DHT22;6275;43.688;1.408;2023-11-21T18:06:38;9.30;99.90
12421;DHT22;6275;43.688;1.408;2023-11-21T18:09:05;9.30;99.90
12421;DHT22;6275;43.688;1.408;2023-11-21T18:11:35;9.30;99.90
12421;DHT22;6275;43.688;1.408;2023-11-21T18:14:02;9.30;99.90
12421;DHT22;6275;43.688;1.408;2023-11-21T18:16:36;9.30;99.90
12421;DHT22;6275;43.688;1.408;2023-11-21T18:19:04;9.30;99.90
12421;DHT22;6275;43.688;1.408;2023-11-21T18:21:31;9.30;99.90
12421;DHT22;6275;43.688;1.408;2023-11-21T18:23:58;9.30;99.90
12421;DHT22;6275;43.688;1.408;2023-11-21T18:26:25;9.30;99.90
12421;DHT22;6275;43.688;1.408;2023-11-21T18:28:52;9.30;99.90
12421;DHT22;6275;43.688;1.408;2023-11-21T18:31:19;9.30;99.90
12421;DHT22;6275;43.688;1.408;2023-11-21T18:33:47;9.30;99.90
12421;DHT22;6275;43.688;1.408;2023-11-21T18:36:14;9.30;99.90
12421;DHT22;6275;43.688;1.408;2023-11-21T18:38:42;9.30;99.90
12421;DHT22;6275;43.688;1.408;2023-11-21T18:41:09;9.30;99.90
12421;DHT22;6275;43.688;1.408;2023-11-21T18:43:36;9.20;99.90
12421;DHT22;6275;43.688;1.408;2023-11-21T18:46:02;9.20;99.90
12421;DHT22;6275;43.688;1.408;2023-11-21T18:48:30;9.20;99.90
12421;DHT22;6275;43.688;1.408;2023-11-21T18:50:57;9.20;99.90
12421;DHT22;6275;43.688;1.408;2023-11-21T18:53:24;9.20;99.90
12421;DHT22;6275;43.688;1.408;2023-11-21T18:55:51;9.20;99.90
12421;DHT22;6275;43.688;1.408;2023-11-21T18:58:18;9.20;99.90
12421;DHT22;6275;43.688;1.408;2023-11-21T19:00:46;9.10;99.90
12421;DHT22;6275;43.688;1.408;2023-11-21T19:03:12;9.10;99.90
12421;DHT22;6275;43.688;1.408;2023-11-21T19:05:39;9.00;99.90
12421;DHT22;6275;43.688;1.408;2023-11-21T19:08:06;9.00;99.90
12421;DHT22;6275;43.688;1.408;2023-11-21T19:10:33;8.90;99.90
12421;DHT22;6275;43.688;1.408;2023-11-21T19:13:01;8.90;99.90
12421;DHT22;6275;43.688;1.408;2023-11-21T19:15:30;8.90;99.90
12421;DHT22;6275;43.688;1.408;2023-11-21T19:17:57;8.90;99.90
12421;DHT22;6275;43.688;1.408;2023-11-21T19:20:27;8.80;99.90
12421;DHT22;6275;43.688;1.408;2023-11-21T19:22:54;8.70;99.90
12421;DHT22;6275;43.688;1.408;2023-11-21T19:25:22;8.70;99.90
12421;DHT22;6275;43.688;1.408;2023-11-21T19:27:50;8.60;99.90
12421;DHT22;6275;43.688;1.408;2023-11-21T19:30:18;8.60;99.90
12421;DHT22;6275;43.688;1.408;2023-11-21T19:32:45;8.60;99.90
12421;DHT22;6275;43.688;1.408;2023-11-21T19:35:11;8.60;99.90
12421;DHT22;6275;43.688;1.408;2023-11-21T19:37:39;8.60;99.90
12421;DHT22;6275;43.688;1.408;2023-11-21T19:40:06;8.50;99.90
12421;DHT22;6275;43.688;1.408;2023-11-21T19:42:33;8.50;99.90
12421;DHT22;6275;43.688;1.408;2023-11-21T19:45:03;8.60;99.90